sensor_id;sensor_type;location;lat;lon;timestamp;temperature;humidity
7232;DHT22;3657;49.630;11.018;2023-05-01T00:00:49;13.60;90.20
7232;DHT22;3657;49.630;11.018;2023-05-01T00:03:17;13.60;90.10
7232;DHT22;3657;49.630;11.018;2023-05-01T00:05:44;13.60;90.20
7232;DHT22;3657;49.630;11.018;2023-05-01T00:08:11;13.50;90.20
7232;DHT22;3657;49.630;11.018;2023-05-01T00:10:38;13.50;90.10
7232;DHT22;3657;49.630;11.018;2023-05-01T00:13:05;13.40;89.90
7232;DHT22;3657;49.630;11.018;2023-05-01T00:15:32;13.40;90.20
7232;DHT22;3657;49.630;11.018;2023-05-01T00:17:59;13.30;89.90
7232;DHT22;3657;49.630;11.018;2023-05-01T00:20:28;13.30;90.30
7232;DHT22;3657;49.630;11.018;2023-05-01T00:22:55;13.30;90.30
7232;DHT22;3657;49.630;11.018;2023-05-01T00:25:22;13.30;90.30
7232;DHT22;3657;49.630;11.018;2023-05-01T00:27:49;13.30;89.50
7232;DHT22;3657;49.630;11.018;2023-05-01T00:30:16;13.30;90.20
7232;DHT22;3657;49.630;11.018;2023-05-01T00:32:42;13.30;89.70
7232;DHT22;3657;49.630;11.018;2023-05-01T00:35:09;13.30;90.10
7232;DHT22;3657;49.630;11.018;2023-05-01T00:37:37;13.20;90.00
7232;DHT22;3657;49.630;11.018;2023-05-01T00:40:05;13.10;88.90
7232;DHT22;3657;49.630;11.018;2023-05-01T00:42:36;13.10;88.90
7232;DHT22;3657;49.630;11.018;2023-05-01T00:45:04;13.10;90.00
7232;DHT22;3657;49.630;11.018;2023-05-01T00:47:31;13.10;88.80
7232;DHT22;3657;49.630;11.018;2023-05-01T00:49:59;12.90;88.50
7232;DHT22;3657;49.630;11.018;2023-05-01T00:52:26;12.90;89.40
7232;DHT22;3657;49.630;11.018;2023-05-01T00:54:55;12.90;89.40
7232;DHT22;3657;49.630;11.018;2023-05-01T00:57:22;12.90;90.00
7232;DHT22;3657;49.630;11.018;2023-05-01T00:59:49;12.80;89.50
7232;DHT22;3657;49.630;11.018;2023-05-01T01:02:16;12.80;89.10
7232;DHT22;3657;49.630;11.018;2023-05-01T01:04:43;12.80;87.70
7232;DHT22;3657;49.630;11.018;2023-05-01T01:07:16;12.80;90.00
7232;DHT22;3657;49.630;11.018;2023-05-01T01:09:54;12.70;88.10
7232;DHT22;3657;49.630;11.018;2023-05-01T01:12:26;12.60;89.50
7232;DHT22;3657;49.630;11.018;2023-05-01T01:15:01;12.60;88.40
7232;DHT22;3657;49.630;11.018;2023-05-01T01:17:33;12.60;89.60
7232;DHT22;3657;49.630;11.018;2023-05-01T01:20:26;12.50;88.00
7232;DHT22;3657;49.630;11.018;2023-05-01T01:23:00;12.50;89.70
7232;DHT22;3657;49.630;11.018;2023-05-01T01:25:49;12.50;89.60
7232;DHT22;3657;49.630;11.018;2023-05-01T01:28:46;12.50;87.90
7232;DHT22;3657;49.630;11.018;2023-05-01T01:31:19;12.50;87.70
7232;DHT22;3657;49.630;11.018;2023-05-01T01:33:58;12.40;89.40
7232;DHT22;3657;49.630;11.018;2023-05-01T01:36:36;12.50;88.30
7232;DHT22;3657;49.630;11.018;2023-05-01T01:39:09;12.40;88.40
7232;DHT22;3657;49.630;11.018;2023-05-01T01:41:37;12.40;88.80
7232;DHT22;3657;49.630;11.018;2023-05-01T01:44:09;12.40;89.20
7232;DHT22;3657;49.630;11.018;2023-05-01T01:46:40;12.30;89.50
7232;DHT22;3657;49.630;11.018;2023-05-01T01:49:15;12.30;88.20
7232;DHT22;3657;49.630;11.018;2023-05-01T01:51:44;12.30;88.20
7232;DHT22;3657;49.630;11.018;2023-05-01T01:54:14;12.30;89.60
7232;DHT22;3657;49.630;11.018;2023-05-01T01:56:43;12.30;89.80
7232;DHT22;3657;49.630;11.018;2023-05-01T01:59:13;12.30;89.80
7232;DHT22;3657;49.630;11.018;2023-05-01T02:01:40;12.30;88.80
7232;DHT22;3657;49.630;11.018;2023-05-01T02:04:10;12.30;89.20
7232;DHT22;3657;49.630;11.018;2023-05-01T02:06:39;12.20;88.90
7232;DHT22;3657;49.630;11.018;2023-05-01T02:09:07;12.20;89.50
7232;DHT22;3657;49.630;11.018;2023-05-01T02:11:35;12.10;88.20
7232;DHT22;3657;49.630;11.018;2023-05-01T02:14:03;12.10;89.20
7232;DHT22;3657;49.630;11.018;2023-05-01T02:16:32;12.00;89.30
7232;DHT22;3657;49.630;11.018;2023-05-01T02:19:00;12.00;89.10
7232;DHT22;3657;49.630;11.018;2023-05-01T02:21:29;11.90;88.10
7232;DHT22;3657;49.630;11.018;2023-05-01T02:23:59;11.90;88.20
7232;DHT22;3657;49.630;11.018;2023-05-01T02:26:28;11.90;89.20
7232;DHT22;3657;49.630;11.018;2023-05-01T02:28:55;11.90;89.50
7232;DHT22;3657;49.630;11.018;2023-05-01T02:31:22;11.80;88.60
7232;DHT22;3657;49.630;11.018;2023-05-01T02:33:48;11.80;88.90
7232;DHT22;3657;49.630;11.018;2023-05-01T02:36:15;11.70;88.90
7232;DHT22;3657;49.630;11.018;2023-05-01T02:38:43;11.70;88.70
7232;DHT22;3657;49.630;11.018;2023-05-01T02:41:12;11.70;89.00
7232;DHT22;3657;49.630;11.018;2023-05-01T02:43:43;11.60;88.10
7232;DHT22;3657;49.630;11.018;2023-05-01T02:46:12;11.60;88.30
7232;DHT22;3657;49.630;11.018;2023-05-01T02:48:41;11.60;89.40
7232;DHT22;3657;49.630;11.018;2023-05-01T02:51:08;11.60;88.70
7232;DHT22;3657;49.630;11.018;2023-05-01T02:53:35;11.60;88.20
7232;DHT22;3657;49.630;11.018;2023-05-01T02:56:05;11.60;88.20
7232;DHT22;3657;49.630;11.018;2023-05-01T02:58:33;11.50;88.20
7232;DHT22;3657;49.630;11.018;2023-05-01T03:01:00;11.60;88.90
7232;DHT22;3657;49.630;11.018;2023-05-01T03:03:27;11.60;89.00
7232;DHT22;3657;49.630;11.018;2023-05-01T03:05:53;11.60;88.40
7232;DHT22;3657;49.630;11.018;2023-05-01T03:08:20;11.60;89.40
7232;DHT22;3657;49.630;11.018;2023-05-01T03:10:46;11.60;89.90
7232;DHT22;3657;49.630;11.018;2023-05-01T03:13:17;11.60;90.00
7232;DHT22;3657;49.630;11.018;2023-05-01T03:15:44;11.60;90.00
7232;DHT22;3657;49.630;11.018;2023-05-01T03:18:11;11.70;90.10
7232;DHT22;3657;49.630;11.018;2023-05-01T03:20:37;11.70;90.10
7232;DHT22;3657;49.630;11.018;2023-05-01T03:23:04;11.70;90.10
7232;DHT22;3657;49.630;11.018;2023-05-01T03:25:32;11.70;90.20
7232;DHT22;3657;49.630;11.018;2023-05-01T03:27:58;11.70;90.10
7232;DHT22;3657;49.630;11.018;2023-05-01T03:30:26;11.70;89.90
7232;DHT22;3657;49.630;11.018;2023-05-01T03:32:53;11.60;90.10
7232;DHT22;3657;49.630;11.018;2023-05-01T03:35:20;11.70;90.20
7232;DHT22;3657;49.630;11.018;2023-05-01T03:37:47;11.60;90.20
7232;DHT22;3657;49.630;11.018;2023-05-01T03:40:14;11.60;90.20
7232;DHT22;3657;49.630;11.018;2023-05-01T03:42:40;11.60;90.20
7232;DHT22;3657;49.630;11.018;2023-05-01T03:45:08;11.60;90.20
7232;DHT22;3657;49.630;11.018;2023-05-01T03:47:36;11.60;90.30
7232;DHT22;3657;49.630;11.018;2023-05-01T03:50:04;11.50;90.20
7232;DHT22;3657;49.630;11.018;2023-05-01T03:52:30;11.50;90.30
7232;DHT22;3657;49.630;11.018;2023-05-01T03:54:57;11.50;90.30
7232;DHT22;3657;49.630;11.018;2023-05-01T03:57:24;11.40;90.30
7232;DHT22;3657;49.630;11.018;2023-05-01T03:59:51;11.40;90.30
7232;DHT22;3657;49.630;11.018;2023-05-01T04:02:18;11.40;90.40
7232;DHT22;3657;49.630;11.018;2023-05-01T04:04:46;11.40;90.40
7232;DHT22;3657;49.630;11.018;2023-05-01T04:07:13;11.30;90.30
7232;DHT22;3657;49.630;11.018;2023-05-01T04:09:40;11.30;90.40
7232;DHT22;3657;49.630;11.018;2023-05-01T04:12:07;11.30;90.40
7232;DHT22;3657;49.630;11.018;2023-05-01T04:14:33;11.30;90.40
7232;DHT22;3657;49.630;11.018;2023-05-01T04:17:00;11.30;90.40
7232;DHT22;3657;49.630;11.018;2023-05-01T04:19:27;11.30;90.40
7232;DHT22;3657;49.630;11.018;2023-05-01T04:21:55;11.30;90.40
7232;DHT22;3657;49.630;11.018;2023-05-01T04:24:22;11.30;90.50
7232;DHT22;3657;49.630;11.018;2023-05-01T04:26:48;11.20;90.50
7232;DHT22;3657;49.630;11.018;2023-05-01T04:29:15;11.20;90.50
7232;DHT22;3657;49.630;11.018;2023-05-01T04:31:42;11.20;90.50
7232;DHT22;3657;49.630;11.018;2023-05-01T04:34:08;11.20;90.50
7232;DHT22;3657;49.630;11.018;2023-05-01T04:36:35;11.20;90.50
7232;DHT22;3657;49.630;11.018;2023-05-01T04:39:03;11.20;90.50
7232;DHT22;3657;49.630;11.018;2023-05-01T04:41:30;11.20;90.60
7232;DHT22;3657;49.630;11.018;2023-05-01T04:43:56;11.20;90.50
7232;DHT22;3657;49.630;11.018;2023-05-01T04:46:23;11.20;90.60
7232;DHT22;3657;49.630;11.018;2023-05-01T04:48:50;11.20;90.50
7232;DHT22;3657;49.630;11.018;2023-05-01T04:51:16;11.20;90.50
7232;DHT22;3657;49.630;11.018;2023-05-01T04:53:44;11.20;90.50
7232;DHT22;3657;49.630;11.018;2023-05-01T04:56:12;11.20;90.50
7232;DHT22;3657;49.630;11.018;2023-05-01T04:58:38;11.20;90.50
7232;DHT22;3657;49.630;11.018;2023-05-01T05:01:05;11.20;90.50
7232;DHT22;3657;49.630;11.018;2023-05-01T05:03:32;11.20;90.60
7232;DHT22;3657;49.630;11.018;2023-05-01T05:05:59;11.20;90.60
7232;DHT22;3657;49.630;11.018;2023-05-01T05:08:25;11.20;90.50
7232;DHT22;3657;49.630;11.018;2023-05-01T05:10:56;11.20;90.50
7232;DHT22;3657;49.630;11.018;2023-05-01T05:13:24;11.30;90.50
7232;DHT22;3657;49.630;11.018;2023-05-01T05:15:51;11.30;90.50
7232;DHT22;3657;49.630;11.018;2023-05-01T05:18:17;11.30;90.50
7232;DHT22;3657;49.630;11.018;2023-05-01T05:20:44;11.40;90.60
7232;DHT22;3657;49.630;11.018;2023-05-01T05:23:11;11.40;90.50
7232;DHT22;3657;49.630;11.018;2023-05-01T05:25:38;11.50;90.50
7232;DHT22;3657;49.630;11.018;2023-05-01T05:28:07;11.50;90.40
7232;DHT22;3657;49.630;11.018;2023-05-01T05:30:35;11.60;90.40
7232;DHT22;3657;49.630;11.018;2023-05-01T05:33:02;11.70;90.50
7232;DHT22;3657;49.630;11.018;2023-05-01T05:35:29;11.80;90.30
7232;DHT22;3657;49.630;11.018;2023-05-01T05:37:56;11.80;90.50
7232;DHT22;3657;49.630;11.018;2023-05-01T05:40:23;11.90;90.40
7232;DHT22;3657;49.630;11.018;2023-05-01T05:42:49;12.00;90.40
7232;DHT22;3657;49.630;11.018;2023-05-01T05:45:16;12.00;90.40
7232;DHT22;3657;49.630;11.018;2023-05-01T05:47:44;12.00;90.50
7232;DHT22;3657;49.630;11.018;2023-05-01T05:50:11;12.00;90.40
7232;DHT22;3657;49.630;11.018;2023-05-01T05:52:38;12.00;90.40
7232;DHT22;3657;49.630;11.018;2023-05-01T05:55:05;12.00;90.40
7232;DHT22;3657;49.630;11.018;2023-05-01T05:57:32;12.10;90.60
7232;DHT22;3657;49.630;11.018;2023-05-01T06:00:01;12.20;90.70
7232;DHT22;3657;49.630;11.018;2023-05-01T06:02:29;12.20;90.70
7232;DHT22;3657;49.630;11.018;2023-05-01T06:04:57;12.30;90.50
7232;DHT22;3657;49.630;11.018;2023-05-01T06:07:24;12.40;90.30
7232;DHT22;3657;49.630;11.018;2023-05-01T06:09:54;12.40;90.00
7232;DHT22;3657;49.630;11.018;2023-05-01T06:12:25;12.50;90.10
7232;DHT22;3657;49.630;11.018;2023-05-01T06:14:54;12.60;90.20
7232;DHT22;3657;49.630;11.018;2023-05-01T06:17:21;12.50;90.30
7232;DHT22;3657;49.630;11.018;2023-05-01T06:19:47;12.60;90.60
7232;DHT22;3657;49.630;11.018;2023-05-01T06:22:16;12.60;90.90
7232;DHT22;3657;49.630;11.018;2023-05-01T06:24:42;12.60;91.00
7232;DHT22;3657;49.630;11.018;2023-05-01T06:27:09;12.60;91.20
7232;DHT22;3657;49.630;11.018;2023-05-01T06:29:36;12.60;91.20
7232;DHT22;3657;49.630;11.018;2023-05-01T06:32:03;12.60;91.20
7232;DHT22;3657;49.630;11.018;2023-05-01T06:34:29;12.60;91.20
7232;DHT22;3657;49.630;11.018;2023-05-01T06:36:56;12.60;91.20
7232;DHT22;3657;49.630;11.018;2023-05-01T06:39:24;12.50;92.20
7232;DHT22;3657;49.630;11.018;2023-05-01T06:41:54;12.50;92.60
7232;DHT22;3657;49.630;11.018;2023-05-01T06:44:20;12.50;92.60
7232;DHT22;3657;49.630;11.018;2023-05-01T06:46:47;12.40;91.90
7232;DHT22;3657;49.630;11.018;2023-05-01T06:49:14;12.40;92.20
7232;DHT22;3657;49.630;11.018;2023-05-01T06:51:40;12.50;91.90
7232;DHT22;3657;49.630;11.018;2023-05-01T06:54:07;12.50;92.30
7232;DHT22;3657;49.630;11.018;2023-05-01T06:56:38;12.60;92.10
7232;DHT22;3657;49.630;11.018;2023-05-01T06:59:05;12.90;92.20
7232;DHT22;3657;49.630;11.018;2023-05-01T07:01:31;13.10;92.60
7232;DHT22;3657;49.630;11.018;2023-05-01T07:03:58;13.20;92.80
7232;DHT22;3657;49.630;11.018;2023-05-01T07:06:28;13.30;92.00
7232;DHT22;3657;49.630;11.018;2023-05-01T07:08:55;13.20;91.90
7232;DHT22;3657;49.630;11.018;2023-05-01T07:11:22;13.20;92.80
7232;DHT22;3657;49.630;11.018;2023-05-01T07:13:50;13.30;92.80
7232;DHT22;3657;49.630;11.018;2023-05-01T07:16:17;13.50;92.90
7232;DHT22;3657;49.630;11.018;2023-05-01T07:18:43;13.50;92.90
7232;DHT22;3657;49.630;11.018;2023-05-01T07:21:10;13.50;93.30
7232;DHT22;3657;49.630;11.018;2023-05-01T07:23:37;13.50;93.60
7232;DHT22;3657;49.630;11.018;2023-05-01T07:26:04;13.60;93.00
7232;DHT22;3657;49.630;11.018;2023-05-01T07:28:31;13.70;93.70
7232;DHT22;3657;49.630;11.018;2023-05-01T07:30:59;13.80;93.10
7232;DHT22;3657;49.630;11.018;2023-05-01T07:33:26;14.00;94.00
7232;DHT22;3657;49.630;11.018;2023-05-01T07:35:53;14.00;93.60
7232;DHT22;3657;49.630;11.018;2023-05-01T07:38:19;14.20;92.60
7232;DHT22;3657;49.630;11.018;2023-05-01T07:40:48;14.40;92.00
7232;DHT22;3657;49.630;11.018;2023-05-01T07:43:17;14.60;93.10
7232;DHT22;3657;49.630;11.018;2023-05-01T07:45:53;14.90;93.30
7232;DHT22;3657;49.630;11.018;2023-05-01T07:48:23;15.00;93.00
7232;DHT22;3657;49.630;11.018;2023-05-01T07:50:49;15.10;92.40
7232;DHT22;3657;49.630;11.018;2023-05-01T07:53:16;15.10;90.90
7232;DHT22;3657;49.630;11.018;2023-05-01T07:55:43;15.10;93.40
7232;DHT22;3657;49.630;11.018;2023-05-01T07:58:09;15.10;91.80
7232;DHT22;3657;49.630;11.018;2023-05-01T08:00:36;15.30;92.50
7232;DHT22;3657;49.630;11.018;2023-05-01T08:03:03;15.40;93.20
7232;DHT22;3657;49.630;11.018;2023-05-01T08:05:31;15.50;93.80
7232;DHT22;3657;49.630;11.018;2023-05-01T08:07:57;15.60;91.80
7232;DHT22;3657;49.630;11.018;2023-05-01T08:10:24;15.80;93.60
7232;DHT22;3657;49.630;11.018;2023-05-01T08:12:52;15.90;94.00
7232;DHT22;3657;49.630;11.018;2023-05-01T08:15:19;15.90;93.20
7232;DHT22;3657;49.630;11.018;2023-05-01T08:17:46;15.90;93.30
7232;DHT22;3657;49.630;11.018;2023-05-01T08:20:13;15.80;92.50
7232;DHT22;3657;49.630;11.018;2023-05-01T08:22:41;15.70;94.50
7232;DHT22;3657;49.630;11.018;2023-05-01T08:25:07;15.90;94.30
7232;DHT22;3657;49.630;11.018;2023-05-01T08:27:34;16.00;94.00
7232;DHT22;3657;49.630;11.018;2023-05-01T08:30:01;16.10;94.10
7232;DHT22;3657;49.630;11.018;2023-05-01T08:32:27;16.30;94.60
7232;DHT22;3657;49.630;11.018;2023-05-01T08:34:54;16.50;94.50
7232;DHT22;3657;49.630;11.018;2023-05-01T08:37:21;16.70;93.00
7232;DHT22;3657;49.630;11.018;2023-05-01T08:39:49;16.80;93.80
7232;DHT22;3657;49.630;11.018;2023-05-01T08:42:16;16.70;91.20
7232;DHT22;3657;49.630;11.018;2023-05-01T08:44:44;16.60;91.70
7232;DHT22;3657;49.630;11.018;2023-05-01T08:47:14;16.60;94.40
7232;DHT22;3657;49.630;11.018;2023-05-01T08:49:42;16.70;94.50
7232;DHT22;3657;49.630;11.018;2023-05-01T08:52:10;16.80;94.80
7232;DHT22;3657;49.630;11.018;2023-05-01T08:54:40;17.00;94.90
7232;DHT22;3657;49.630;11.018;2023-05-01T08:57:09;17.20;94.60
7232;DHT22;3657;49.630;11.018;2023-05-01T08:59:37;17.50;94.30
7232;DHT22;3657;49.630;11.018;2023-05-01T09:02:05;17.60;94.20
7232;DHT22;3657;49.630;11.018;2023-05-01T09:04:33;17.70;93.00
7232;DHT22;3657;49.630;11.018;2023-05-01T09:07:01;17.70;92.90
7232;DHT22;3657;49.630;11.018;2023-05-01T09:09:28;17.70;92.70
7232;DHT22;3657;49.630;11.018;2023-05-01T09:11:56;17.70;93.30
7232;DHT22;3657;49.630;11.018;2023-05-01T09:14:27;17.70;84.60
7232;DHT22;3657;49.630;11.018;2023-05-01T09:16:54;17.60;89.70
7232;DHT22;3657;49.630;11.018;2023-05-01T09:19:21;17.40;90.30
7232;DHT22;3657;49.630;11.018;2023-05-01T09:21:48;17.50;91.80
7232;DHT22;3657;49.630;11.018;2023-05-01T09:24:14;17.60;91.00
7232;DHT22;3657;49.630;11.018;2023-05-01T09:26:41;17.60;90.10
7232;DHT22;3657;49.630;11.018;2023-05-01T09:29:08;17.40;90.00
7232;DHT22;3657;49.630;11.018;2023-05-01T09:31:37;17.10;83.50
7232;DHT22;3657;49.630;11.018;2023-05-01T09:34:05;16.90;82.60
7232;DHT22;3657;49.630;11.018;2023-05-01T09:36:33;16.70;80.20
7232;DHT22;3657;49.630;11.018;2023-05-01T09:39:01;16.70;81.80
7232;DHT22;3657;49.630;11.018;2023-05-01T09:41:29;16.80;91.70
7232;DHT22;3657;49.630;11.018;2023-05-01T09:43:58;16.90;87.90
7232;DHT22;3657;49.630;11.018;2023-05-01T09:46:26;17.00;91.10
7232;DHT22;3657;49.630;11.018;2023-05-01T09:48:58;17.00;81.40
7232;DHT22;3657;49.630;11.018;2023-05-01T09:51:26;16.90;85.50
7232;DHT22;3657;49.630;11.018;2023-05-01T09:53:55;17.20;88.50
7232;DHT22;3657;49.630;11.018;2023-05-01T09:56:22;17.30;88.50
7232;DHT22;3657;49.630;11.018;2023-05-01T09:58:50;17.30;82.70
7232;DHT22;3657;49.630;11.018;2023-05-01T10:01:17;17.00;87.20
7232;DHT22;3657;49.630;11.018;2023-05-01T10:03:44;16.90;81.30
7232;DHT22;3657;49.630;11.018;2023-05-01T10:06:25;16.80;87.20
7232;DHT22;3657;49.630;11.018;2023-05-01T10:08:53;16.90;84.50
7232;DHT22;3657;49.630;11.018;2023-05-01T10:11:20;17.00;91.10
7232;DHT22;3657;49.630;11.018;2023-05-01T10:14:04;17.20;89.20
7232;DHT22;3657;49.630;11.018;2023-05-01T10:16:32;17.30;85.80
7232;DHT22;3657;49.630;11.018;2023-05-01T10:18:59;17.60;90.80
7232;DHT22;3657;49.630;11.018;2023-05-01T10:21:27;17.60;87.20
7232;DHT22;3657;49.630;11.018;2023-05-01T10:23:54;17.60;87.30
7232;DHT22;3657;49.630;11.018;2023-05-01T10:26:21;17.50;90.00
7232;DHT22;3657;49.630;11.018;2023-05-01T10:28:50;17.50;86.00
7232;DHT22;3657;49.630;11.018;2023-05-01T10:31:19;17.40;89.00
7232;DHT22;3657;49.630;11.018;2023-05-01T10:33:46;17.40;90.10
7232;DHT22;3657;49.630;11.018;2023-05-01T10:36:16;17.40;85.40
7232;DHT22;3657;49.630;11.018;2023-05-01T10:38:46;17.40;92.50
7232;DHT22;3657;49.630;11.018;2023-05-01T10:41:13;17.50;90.80
7232;DHT22;3657;49.630;11.018;2023-05-01T10:43:40;17.50;85.00
7232;DHT22;3657;49.630;11.018;2023-05-01T10:46:26;17.60;93.10
7232;DHT22;3657;49.630;11.018;2023-05-01T10:48:55;17.70;93.10
7232;DHT22;3657;49.630;11.018;2023-05-01T10:51:23;17.70;89.90
7232;DHT22;3657;49.630;11.018;2023-05-01T10:54:24;17.60;91.40
7232;DHT22;3657;49.630;11.018;2023-05-01T10:56:51;17.50;90.90
7232;DHT22;3657;49.630;11.018;2023-05-01T10:59:18;17.50;89.80
7232;DHT22;3657;49.630;11.018;2023-05-01T11:01:46;17.50;94.30
7232;DHT22;3657;49.630;11.018;2023-05-01T11:04:46;17.60;94.50
7232;DHT22;3657;49.630;11.018;2023-05-01T11:07:19;17.80;94.70
7232;DHT22;3657;49.630;11.018;2023-05-01T11:09:48;17.90;95.00
7232;DHT22;3657;49.630;11.018;2023-05-01T11:12:46;17.90;94.90
7232;DHT22;3657;49.630;11.018;2023-05-01T11:15:24;17.90;95.00
7232;DHT22;3657;49.630;11.018;2023-05-01T11:17:52;17.90;95.60
7232;DHT22;3657;49.630;11.018;2023-05-01T11:20:45;18.00;96.90
7232;DHT22;3657;49.630;11.018;2023-05-01T11:23:19;18.10;97.00
7232;DHT22;3657;49.630;11.018;2023-05-01T11:25:47;18.00;97.70
7232;DHT22;3657;49.630;11.018;2023-05-01T11:28:18;18.00;98.50
7232;DHT22;3657;49.630;11.018;2023-05-01T11:30:48;17.90;98.30
7232;DHT22;3657;49.630;11.018;2023-05-01T11:33:21;17.80;99.00
7232;DHT22;3657;49.630;11.018;2023-05-01T11:35:59;17.80;99.80
7232;DHT22;3657;49.630;11.018;2023-05-01T11:38:26;17.70;99.40
7232;DHT22;3657;49.630;11.018;2023-05-01T11:41:00;17.50;99.50
7232;DHT22;3657;49.630;11.018;2023-05-01T11:43:28;17.40;99.00
7232;DHT22;3657;49.630;11.018;2023-05-01T11:45:55;17.30;98.90
7232;DHT22;3657;49.630;11.018;2023-05-01T11:48:27;17.20;99.00
7232;DHT22;3657;49.630;11.018;2023-05-01T11:50:54;17.10;99.90
7232;DHT22;3657;49.630;11.018;2023-05-01T11:53:21;17.00;99.90
7232;DHT22;3657;49.630;11.018;2023-05-01T11:55:48;17.00;99.90
7232;DHT22;3657;49.630;11.018;2023-05-01T11:58:17;17.00;99.90
7232;DHT22;3657;49.630;11.018;2023-05-01T12:00:46;16.90;99.90
7232;DHT22;3657;49.630;11.018;2023-05-01T12:03:15;16.90;99.90
7232;DHT22;3657;49.630;11.018;2023-05-01T12:05:43;16.80;99.90
7232;DHT22;3657;49.630;11.018;2023-05-01T12:08:13;16.80;99.90
7232;DHT22;3657;49.630;11.018;2023-05-01T12:10:43;16.70;99.90
7232;DHT22;3657;49.630;11.018;2023-05-01T12:13:13;16.60;99.90
7232;DHT22;3657;49.630;11.018;2023-05-01T12:15:44;16.60;99.60
7232;DHT22;3657;49.630;11.018;2023-05-01T12:18:11;16.50;99.50
7232;DHT22;3657;49.630;11.018;2023-05-01T12:20:39;16.50;99.40
7232;DHT22;3657;49.630;11.018;2023-05-01T12:23:08;16.40;99.70
7232;DHT22;3657;49.630;11.018;2023-05-01T12:25:37;16.40;99.50
7232;DHT22;3657;49.630;11.018;2023-05-01T12:28:08;16.40;99.50
7232;DHT22;3657;49.630;11.018;2023-05-01T12:30:35;16.30;99.40
7232;DHT22;3657;49.630;11.018;2023-05-01T12:33:09;16.20;99.50
7232;DHT22;3657;49.630;11.018;2023-05-01T12:35:37;16.20;99.80
7232;DHT22;3657;49.630;11.018;2023-05-01T12:38:11;16.20;99.70
7232;DHT22;3657;49.630;11.018;2023-05-01T12:40:39;16.10;99.70
7232;DHT22;3657;49.630;11.018;2023-05-01T12:43:06;16.10;99.70
7232;DHT22;3657;49.630;11.018;2023-05-01T12:45:37;16.10;99.70
7232;DHT22;3657;49.630;11.018;2023-05-01T12:48:11;16.10;99.60
7232;DHT22;3657;49.630;11.018;2023-05-01T12:50:38;16.10;99.70
7232;DHT22;3657;49.630;11.018;2023-05-01T12:53:05;16.10;99.70
7232;DHT22;3657;49.630;11.018;2023-05-01T12:55:42;16.10;99.70
7232;DHT22;3657;49.630;11.018;2023-05-01T12:58:10;16.00;99.60
7232;DHT22;3657;49.630;11.018;2023-05-01T13:00:44;16.00;99.70
7232;DHT22;3657;49.630;11.018;2023-05-01T13:03:13;16.00;99.70
7232;DHT22;3657;49.630;11.018;2023-05-01T13:05:57;16.00;99.80
7232;DHT22;3657;49.630;11.018;2023-05-01T13:08:31;16.00;99.80
7232;DHT22;3657;49.630;11.018;2023-05-01T13:10:59;15.90;99.90
7232;DHT22;3657;49.630;11.018;2023-05-01T13:13:27;15.90;99.90
7232;DHT22;3657;49.630;11.018;2023-05-01T13:16:03;15.90;99.90
7232;DHT22;3657;49.630;11.018;2023-05-01T13:18:32;15.90;99.90
7232;DHT22;3657;49.630;11.018;2023-05-01T13:21:09;15.90;99.90
7232;DHT22;3657;49.630;11.018;2023-05-01T13:23:37;15.90;99.90
7232;DHT22;3657;49.630;11.018;2023-05-01T13:26:08;15.90;99.90
7232;DHT22;3657;49.630;11.018;2023-05-01T13:28:35;15.80;99.90
7232;DHT22;3657;49.630;11.018;2023-05-01T13:31:11;15.80;99.90
7232;DHT22;3657;49.630;11.018;2023-05-01T13:33:42;15.70;99.90
7232;DHT22;3657;49.630;11.018;2023-05-01T13:36:12;15.70;99.90
7232;DHT22;3657;49.630;11.018;2023-05-01T13:38:41;15.70;99.90
7232;DHT22;3657;49.630;11.018;2023-05-01T13:41:13;15.70;99.90
7232;DHT22;3657;49.630;11.018;2023-05-01T13:43:40;15.60;99.90
7232;DHT22;3657;49.630;11.018;2023-05-01T13:46:08;15.60;99.90
7232;DHT22;3657;49.630;11.018;2023-05-01T13:48:35;15.60;99.90
7232;DHT22;3657;49.630;11.018;2023-05-01T13:51:03;15.60;99.90
7232;DHT22;3657;49.630;11.018;2023-05-01T13:53:30;15.60;99.90
7232;DHT22;3657;49.630;11.018;2023-05-01T13:55:56;15.50;99.90
7232;DHT22;3657;49.630;11.018;2023-05-01T13:58:23;15.50;99.90
7232;DHT22;3657;49.630;11.018;2023-05-01T14:00:50;15.50;99.90
7232;DHT22;3657;49.630;11.018;2023-05-01T14:03:17;15.50;99.90
7232;DHT22;3657;49.630;11.018;2023-05-01T14:05:44;15.50;99.90
7232;DHT22;3657;49.630;11.018;2023-05-01T14:08:13;15.50;99.90
7232;DHT22;3657;49.630;11.018;2023-05-01T14:10:40;15.50;99.90
7232;DHT22;3657;49.630;11.018;2023-05-01T14:13:06;15.50;99.90
7232;DHT22;3657;49.630;11.018;2023-05-01T14:15:37;15.50;99.90
7232;DHT22;3657;49.630;11.018;2023-05-01T14:18:09;15.50;99.90
7232;DHT22;3657;49.630;11.018;2023-05-01T14:20:38;15.50;99.90
7232;DHT22;3657;49.630;11.018;2023-05-01T14:23:06;15.50;99.90
7232;DHT22;3657;49.630;11.018;2023-05-01T14:25:34;15.40;99.90
7232;DHT22;3657;49.630;11.018;2023-05-01T14:28:05;15.50;99.90
7232;DHT22;3657;49.630;11.018;2023-05-01T14:30:33;15.40;99.90
7232;DHT22;3657;49.630;11.018;2023-05-01T14:33:03;15.40;99.90
7232;DHT22;3657;49.630;11.018;2023-05-01T14:35:30;15.40;99.90
7232;DHT22;3657;49.630;11.018;2023-05-01T14:38:08;15.40;99.90
7232;DHT22;3657;49.630;11.018;2023-05-01T14:40:41;15.40;99.90
7232;DHT22;3657;49.630;11.018;2023-05-01T14:43:09;15.40;99.90
7232;DHT22;3657;49.630;11.018;2023-05-01T14:45:42;15.30;99.90
7232;DHT22;3657;49.630;11.018;2023-05-01T14:48:16;15.30;99.90
7232;DHT22;3657;49.630;11.018;2023-05-01T14:50:45;15.30;99.90
7232;DHT22;3657;49.630;11.018;2023-05-01T14:53:12;15.30;99.90
7232;DHT22;3657;49.630;11.018;2023-05-01T14:55:42;15.30;99.90
7232;DHT22;3657;49.630;11.018;2023-05-01T14:58:08;15.30;99.90
7232;DHT22;3657;49.630;11.018;2023-05-01T15:00:35;15.40;99.90
7232;DHT22;3657;49.630;11.018;2023-05-01T15:03:02;15.40;99.90
7232;DHT22;3657;49.630;11.018;2023-05-01T15:05:28;15.40;99.90
7232;DHT22;3657;49.630;11.018;2023-05-01T15:07:55;15.40;99.90
7232;DHT22;3657;49.630;11.018;2023-05-01T15:10:24;15.30;99.90
7232;DHT22;3657;49.630;11.018;2023-05-01T15:12:52;15.30;99.90
7232;DHT22;3657;49.630;11.018;2023-05-01T15:15:19;15.30;99.90
7232;DHT22;3657;49.630;11.018;2023-05-01T15:17:46;15.30;99.90
7232;DHT22;3657;49.630;11.018;2023-05-01T15:20:12;15.20;99.90
7232;DHT22;3657;49.630;11.018;2023-05-01T15:22:39;15.30;99.90
7232;DHT22;3657;49.630;11.018;2023-05-01T15:25:07;15.20;99.90
7232;DHT22;3657;49.630;11.018;2023-05-01T15:27:34;15.20;99.90
7232;DHT22;3657;49.630;11.018;2023-05-01T15:30:02;15.20;99.90
7232;DHT22;3657;49.630;11.018;2023-05-01T15:32:30;15.30;99.90
7232;DHT22;3657;49.630;11.018;2023-05-01T15:34:56;15.30;99.90
7232;DHT22;3657;49.630;11.018;2023-05-01T15:37:23;15.30;99.90
7232;DHT22;3657;49.630;11.018;2023-05-01T15:39:50;15.30;99.90
7232;DHT22;3657;49.630;11.018;2023-05-01T15:42:17;15.30;99.90
7232;DHT22;3657;49.630;11.018;2023-05-01T15:44:44;15.30;99.90
7232;DHT22;3657;49.630;11.018;2023-05-01T15:47:12;15.30;99.90
7232;DHT22;3657;49.630;11.018;2023-05-01T15:49:39;15.30;99.90
7232;DHT22;3657;49.630;11.018;2023-05-01T15:52:06;15.40;99.90
7232;DHT22;3657;49.630;11.018;2023-05-01T15:54:32;15.40;99.90